Time,TemperatureF,DewpointF,PressureIn,WindDirection,WindDirectionDegrees,WindSpeedMPH,WindSpeedGustMPH,Humidity,HourlyPrecipIn,Conditions,Clouds,dailyrainin,SolarRadiationWatts/m^2,SoftwareType,DateUTC
2013-09-03 00:03:00,77.0,74.0,-100.00,ENE,68,0.0,2.0,90,0.00,,,0.00,12.000000,,2013-09-03 05:03:00,
2013-09-03 00:12:00,77.0,74.0,-100.00,ENE,68,0.0,2.0,90,0.00,,,0.00,12.000000,,2013-09-03 05:12:00,
2013-09-03 00:23:00,77.0,74.0,-100.00,ENE,68,0.0,2.0,90,0.00,,,0.00,12.000000,,2013-09-03 05:23:00,
2013-09-03 00:52:00,75.0,72.0,-100.00,SSE,150,0.0,0.0,91,0.00,,,0.00,13.000000,,2013-09-03 05:52:00,
2013-09-03 01:02:00,75.0,72.0,-100.00,SSE,150,0.0,0.0,91,0.00,,,0.00,13.000000,,2013-09-03 06:02:00,
2013-09-03 01:12:00,75.0,72.0,-100.00,SSE,150,0.0,0.0,91,0.00,,,0.00,13.000000,,2013-09-03 06:12:00,
2013-09-03 01:22:00,75.0,72.0,-100.00,SSE,150,0.0,0.0,91,0.00,,,0.00,13.000000,,2013-09-03 06:22:00,
2013-09-03 01:52:00,75.0,73.0,-100.00,ESE,112,0.0,0.0,92,0.00,,,0.00,12.000000,,2013-09-03 06:52:00,
2013-09-03 02:02:00,75.0,73.0,-100.00,ESE,112,0.0,0.0,92,0.00,,,0.00,12.000000,,2013-09-03 07:02:00,
2013-09-03 02:12:00,75.0,73.0,-100.00,ESE,112,0.0,0.0,92,0.00,,,0.00,12.000000,,2013-09-03 07:12:00,
2013-09-03 02:22:00,75.0,73.0,-100.00,ESE,112,0.0,0.0,92,0.00,,,0.00,12.000000,,2013-09-03 07:22:00,
2013-09-03 02:53:00,75.0,73.0,-100.00,NNW,343,0.0,0.0,92,0.00,,,0.00,11.000000,,2013-09-03 07:53:00,
2013-09-03 03:03:00,75.0,73.0,-100.00,NNW,343,0.0,0.0,92,0.00,,,0.00,11.000000,,2013-09-03 08:03:00,
2013-09-03 03:11:00,75.0,73.0,-100.00,NNW,343,0.0,0.0,92,0.00,,,0.00,11.000000,,2013-09-03 08:11:00,
2013-09-03 03:22:00,75.0,73.0,-100.00,NNW,343,0.0,0.0,92,0.00,,,0.00,11.000000,,2013-09-03 08:22:00,
2013-09-03 03:52:00,75.0,73.0,-100.00,North,4,0.0,1.0,92,0.00,,,0.00,11.000000,,2013-09-03 08:52:00,
2013-09-03 04:02:00,75.0,73.0,-100.00,North,4,0.0,1.0,92,0.00,,,0.00,11.000000,,2013-09-03 09:02:00,
2013-09-03 04:11:00,75.0,73.0,-100.00,North,4,0.0,1.0,92,0.00,,,0.00,11.000000,,2013-09-03 09:11:00,
2013-09-03 04:21:00,75.0,73.0,-100.00,North,4,0.0,1.0,92,0.00,,,0.00,11.000000,,2013-09-03 09:21:00,
2013-09-03 04:53:00,75.0,73.0,-100.00,NE,42,0.0,1.0,93,0.00,,,0.00,11.000000,,2013-09-03 09:53:00,
2013-09-03 05:03:00,75.0,73.0,-100.00,NE,42,0.0,1.0,93,0.00,,,0.00,11.000000,,2013-09-03 10:03:00,
2013-09-03 05:13:00,75.0,73.0,-100.00,NE,42,0.0,1.0,93,0.00,,,0.00,11.000000,,2013-09-03 10:13:00,
2013-09-03 05:23:00,75.0,73.0,-100.00,NE,42,0.0,1.0,93,0.00,,,0.00,11.000000,,2013-09-03 10:23:00,
2013-09-03 05:53:00,76.0,74.0,-100.00,West,266,0.0,4.0,93,0.00,,,0.00,11.000000,,2013-09-03 10:53:00,
2013-09-03 06:03:00,76.0,74.0,-100.00,West,266,0.0,4.0,93,0.00,,,0.00,11.000000,,2013-09-03 11:03:00,
2013-09-03 06:12:00,76.0,74.0,-100.00,West,266,0.0,4.0,93,0.00,,,0.00,11.000000,,2013-09-03 11:12:00,
2013-09-03 06:23:00,76.0,74.0,-100.00,West,266,0.0,4.0,93,0.00,,,0.00,11.000000,,2013-09-03 11:23:00,
2013-09-03 06:52:00,75.0,73.0,-100.00,WNW,282,1.0,3.0,93,0.00,,,0.00,11.000000,,2013-09-03 11:52:00,
2013-09-03 07:02:00,75.0,73.0,-100.00,WNW,282,1.0,3.0,93,0.00,,,0.00,11.000000,,2013-09-03 12:02:00,
2013-09-03 07:12:00,75.0,73.0,-100.00,WNW,282,1.0,3.0,93,0.00,,,0.00,11.000000,,2013-09-03 12:12:00,
2013-09-03 07:21:00,75.0,73.0,-100.00,WNW,282,1.0,3.0,93,0.00,,,0.00,11.000000,,2013-09-03 12:21:00,
2013-09-03 07:52:00,78.0,75.0,-100.00,WNW,289,0.0,4.0,92,0.00,,,0.00,29.000000,,2013-09-03 12:52:00,
2013-09-03 08:02:00,78.0,75.0,-100.00,WNW,289,0.0,4.0,92,0.00,,,0.00,29.000000,,2013-09-03 13:02:00,
2013-09-03 08:11:00,78.0,75.0,-100.00,WNW,289,0.0,4.0,92,0.00,,,0.00,29.000000,,2013-09-03 13:11:00,
2013-09-03 08:21:00,78.0,75.0,-100.00,WNW,289,0.0,4.0,92,0.00,,,0.00,29.000000,,2013-09-03 13:21:00,
2013-09-03 08:52:00,81.0,75.0,-100.00,West,275,2.0,7.0,81,0.00,,,0.00,190.000000,,2013-09-03 13:52:00,
2013-09-03 09:02:00,81.0,75.0,-100.00,West,275,2.0,7.0,81,0.00,,,0.00,190.000000,,2013-09-03 14:02:00,
2013-09-03 09:11:00,81.0,75.0,-100.00,West,275,2.0,7.0,81,0.00,,,0.00,190.000000,,2013-09-03 14:11:00,
2013-09-03 09:21:00,81.0,75.0,-100.00,West,275,2.0,7.0,81,0.00,,,0.00,190.000000,,2013-09-03 14:21:00,
2013-09-03 09:52:00,86.0,75.0,-100.00,North,351,3.0,7.0,71,0.00,,,0.00,393.000000,,2013-09-03 14:52:00,
2013-09-03 10:02:00,86.0,75.0,-100.00,North,351,3.0,7.0,71,0.00,,,0.00,393.000000,,2013-09-03 15:02:00,
2013-09-03 10:22:00,86.0,75.0,-100.00,North,351,3.0,7.0,71,0.00,,,0.00,393.000000,,2013-09-03 15:22:00,
2013-09-03 10:54:00,89.0,74.0,-100.00,NW,324,4.0,7.0,62,0.00,,,0.00,693.000000,,2013-09-03 15:54:00,
2013-09-03 11:04:00,89.0,74.0,-100.00,NW,324,4.0,7.0,62,0.00,,,0.00,693.000000,,2013-09-03 16:04:00,
2013-09-03 11:14:00,89.0,74.0,-100.00,NW,324,4.0,7.0,62,0.00,,,0.00,693.000000,,2013-09-03 16:14:00,
2013-09-03 11:24:00,89.0,74.0,-100.00,NW,324,4.0,7.0,62,0.00,,,0.00,693.000000,,2013-09-03 16:24:00,
2013-09-03 11:54:00,90.0,73.0,-100.00,NNW,329,3.0,9.0,58,0.00,,,0.00,656.000000,,2013-09-03 16:54:00,
2013-09-03 12:03:00,90.0,73.0,-100.00,NNW,329,3.0,9.0,58,0.00,,,0.00,656.000000,,2013-09-03 17:03:00,
2013-09-03 12:13:00,90.0,73.0,-100.00,NNW,329,3.0,9.0,58,0.00,,,0.00,656.000000,,2013-09-03 17:13:00,
2013-09-03 12:23:00,90.0,73.0,-100.00,NNW,329,3.0,9.0,58,0.00,,,0.00,656.000000,,2013-09-03 17:23:00,
2013-09-03 12:52:00,90.0,74.0,-100.00,SW,232,4.0,8.0,59,0.00,,,0.00,417.000000,,2013-09-03 17:52:00,
2013-09-03 13:02:00,90.0,74.0,-100.00,SW,232,4.0,8.0,59,0.00,,,0.00,417.000000,,2013-09-03 18:02:00,
2013-09-03 13:12:00,90.0,74.0,-100.00,SW,232,4.0,8.0,59,0.00,,,0.00,417.000000,,2013-09-03 18:12:00,
2013-09-03 13:22:00,90.0,74.0,-100.00,SW,232,4.0,8.0,59,0.00,,,0.00,417.000000,,2013-09-03 18:22:00,
2013-09-03 13:52:00,88.0,73.0,-100.00,SSW,212,5.0,10.0,61,0.00,,,0.00,423.000000,,2013-09-03 18:52:00,
2013-09-03 14:02:00,88.0,73.0,-100.00,SSW,212,5.0,10.0,61,0.00,,,0.00,423.000000,,2013-09-03 19:02:00,
2013-09-03 14:11:00,88.0,73.0,-100.00,SSW,212,5.0,10.0,61,0.00,,,0.00,423.000000,,2013-09-03 19:11:00,
2013-09-03 14:22:00,88.0,73.0,-100.00,SSW,212,5.0,10.0,61,0.00,,,0.00,423.000000,,2013-09-03 19:22:00,
2013-09-03 14:52:00,91.0,77.0,-100.00,SSW,197,5.0,12.0,64,0.00,,,0.00,823.000000,,2013-09-03 19:52:00,
2013-09-03 15:02:00,91.0,77.0,-100.00,SSW,197,5.0,12.0,64,0.00,,,0.00,823.000000,,2013-09-03 20:02:00,
2013-09-03 15:11:00,91.0,77.0,-100.00,SSW,197,5.0,12.0,64,0.00,,,0.00,823.000000,,2013-09-03 20:11:00,
2013-09-03 15:22:00,91.0,77.0,-100.00,SSW,197,5.0,12.0,64,0.00,,,0.00,823.000000,,2013-09-03 20:22:00,
2013-09-03 15:53:00,93.0,73.0,-100.00,SW,215,5.0,10.0,52,0.00,,,0.00,862.000000,,2013-09-03 20:53:00,
2013-09-03 16:01:00,93.0,73.0,-100.00,SW,215,5.0,10.0,52,0.00,,,0.00,862.000000,,2013-09-03 21:01:00,
2013-09-03 16:12:00,93.0,73.0,-100.00,SW,215,5.0,10.0,52,0.00,,,0.00,862.000000,,2013-09-03 21:12:00,
2013-09-03 16:22:00,93.0,73.0,-100.00,SW,215,5.0,10.0,52,0.00,,,0.00,862.000000,,2013-09-03 21:22:00,
2013-09-03 16:54:00,86.0,75.0,-100.00,SSW,195,3.0,9.0,69,0.00,,,0.00,236.000000,,2013-09-03 21:54:00,
2013-09-03 17:04:00,86.0,75.0,-100.00,SSW,195,3.0,9.0,69,0.00,,,0.00,236.000000,,2013-09-03 22:04:00,
2013-09-03 17:13:00,86.0,75.0,-100.00,SSW,195,3.0,9.0,69,0.00,,,0.00,236.000000,,2013-09-03 22:13:00,
2013-09-03 17:23:00,86.0,75.0,-100.00,SSW,195,3.0,9.0,69,0.00,,,0.00,236.000000,,2013-09-03 22:23:00,
2013-09-03 17:53:00,81.0,71.0,-100.00,ESE,117,1.0,8.0,72,0.00,,,0.00,52.000000,,2013-09-03 22:53:00,
2013-09-03 18:04:00,81.0,71.0,-100.00,ESE,117,1.0,8.0,72,0.00,,,0.00,52.000000,,2013-09-03 23:04:00,
2013-09-03 18:12:00,81.0,71.0,-100.00,ESE,117,1.0,8.0,72,0.00,,,0.00,52.000000,,2013-09-03 23:12:00,
2013-09-03 18:22:00,81.0,71.0,-100.00,ESE,117,1.0,8.0,72,0.00,,,0.00,52.000000,,2013-09-03 23:22:00,
2013-09-03 18:54:00,75.0,69.0,-100.00,NE,37,6.0,13.0,83,0.00,,,0.00,14.000000,,2013-09-03 23:54:00,
2013-09-03 19:02:00,75.0,69.0,-100.00,NE,37,6.0,13.0,83,0.00,,,0.00,14.000000,,2013-09-04 00:02:00,
2013-09-03 19:12:00,75.0,69.0,-100.00,NE,37,6.0,13.0,83,0.00,,,0.00,14.000000,,2013-09-04 00:12:00,
2013-09-03 19:22:00,75.0,69.0,-100.00,NE,37,6.0,13.0,83,0.00,,,0.00,14.000000,,2013-09-04 00:22:00,
2013-09-03 19:52:00,74.0,70.0,-100.00,South,191,5.0,12.0,87,0.02,,,0.02,12.000000,,2013-09-04 00:52:00,
2013-09-03 20:01:00,74.0,70.0,-100.00,South,191,5.0,12.0,87,0.02,,,0.02,12.000000,,2013-09-04 01:01:00,
2013-09-03 20:11:00,74.0,70.0,-100.00,South,191,5.0,12.0,87,0.02,,,0.02,12.000000,,2013-09-04 01:11:00,
2013-09-03 20:22:00,74.0,70.0,-100.00,South,191,5.0,12.0,87,0.02,,,0.02,12.000000,,2013-09-04 01:22:00,
2013-09-03 20:53:00,74.0,71.0,-100.00,NNE,12,2.0,8.0,91,0.03,,,0.05,13.000000,,2013-09-04 01:53:00,
2013-09-03 21:02:00,74.0,71.0,-100.00,NNE,12,2.0,8.0,91,0.03,,,0.05,13.000000,,2013-09-04 02:02:00,
2013-09-03 21:11:00,74.0,71.0,-100.00,NNE,12,2.0,8.0,91,0.03,,,0.05,13.000000,,2013-09-04 02:11:00,
2013-09-03 21:22:00,74.0,71.0,-100.00,NNE,12,2.0,8.0,91,0.03,,,0.05,13.000000,,2013-09-04 02:22:00,
2013-09-03 21:52:00,74.0,72.0,-100.00,NW,306,1.0,9.0,92,0.00,,,0.05,13.000000,,2013-09-04 02:52:00,
2013-09-03 22:03:00,74.0,72.0,-100.00,NW,306,1.0,9.0,92,0.00,,,0.05,13.000000,,2013-09-04 03:03:00,
2013-09-03 22:11:00,74.0,72.0,-100.00,NW,306,1.0,9.0,92,0.00,,,0.05,13.000000,,2013-09-04 03:11:00,
2013-09-03 22:22:00,74.0,72.0,-100.00,NW,306,1.0,9.0,92,0.00,,,0.05,13.000000,,2013-09-04 03:22:00,
2013-09-03 22:54:00,73.0,71.0,-100.00,SE,129,0.0,3.0,92,0.00,,,0.05,13.000000,,2013-09-04 03:54:00,
2013-09-03 23:04:00,73.0,71.0,-100.00,SE,129,0.0,3.0,92,0.00,,,0.05,13.000000,,2013-09-04 04:04:00,
2013-09-03 23:14:00,73.0,71.0,-100.00,SE,129,0.0,3.0,92,0.00,,,0.05,13.000000,,2013-09-04 04:14:00,
2013-09-03 23:24:00,73.0,71.0,-100.00,SE,129,0.0,3.0,92,0.00,,,0.05,13.000000,,2013-09-04 04:24:00,
2013-09-03 23:54:00,73.0,71.0,-100.00,NE,35,0.0,2.0,93,0.00,,,0.05,14.000000,,2013-09-04 04:54:00,